createdAt,value
2022-10-22T00:03:16.528Z,10.68
2022-10-22T00:08:18.220Z,10.30
2022-10-22T00:13:20.735Z,10.32
2022-10-22T00:18:22.306Z,10.77
2022-10-22T00:23:23.965Z,10.40
2022-10-22T00:28:25.748Z,10.95
2022-10-22T00:33:28.786Z,10.88
2022-10-22T00:38:30.429Z,10.40
2022-10-22T00:43:32.579Z,9.70
2022-10-22T00:48:34.240Z,10.57
2022-10-22T00:53:39.686Z,10.27
2022-10-22T00:58:47.664Z,9.70
2022-10-22T01:03:50.425Z,9.90
2022-10-22T01:09:01.412Z,9.40
2022-10-22T01:15:00.029Z,8.82
2022-10-22T01:20:24.170Z,10.02
2022-10-22T01:25:37.276Z,9.88
2022-10-22T01:30:40.792Z,9.82
2022-10-22T01:35:45.100Z,10.48
2022-10-22T01:40:47.688Z,9.75
2022-10-22T01:45:54.323Z,9.30
2022-10-22T01:50:58.597Z,9.25
2022-10-22T01:56:22.553Z,9.75
2022-10-22T02:01:33.200Z,9.55
2022-10-22T02:06:38.744Z,10.00
2022-10-22T02:11:41.866Z,9.32
2022-10-22T02:16:45.579Z,9.18
2022-10-22T02:21:47.269Z,9.57
2022-10-22T02:27:00.487Z,8.77
2022-10-22T02:32:05.912Z,9.13
2022-10-22T02:37:08.767Z,9.00
2022-10-22T02:42:12.202Z,8.73
2022-10-22T02:47:13.809Z,8.70
2022-10-22T02:52:15.380Z,8.80
2022-10-22T02:57:17.147Z,9.07
2022-10-22T03:02:18.750Z,8.93
2022-10-22T03:07:20.418Z,9.00
2022-10-22T03:12:22.122Z,9.32
2022-10-22T03:17:23.673Z,9.05
2022-10-22T03:22:29.075Z,8.98
2022-10-22T03:27:30.690Z,8.90
2022-10-22T03:32:32.286Z,9.23
2022-10-22T03:37:34.757Z,8.82
2022-10-22T03:42:36.313Z,9.02
2022-10-22T03:47:38.233Z,8.82
2022-10-22T03:52:40.825Z,9.48
2022-10-22T03:57:42.536Z,9.40
2022-10-22T04:02:44.251Z,8.90
2022-10-22T04:07:45.856Z,10.77
2022-10-22T04:12:48.782Z,10.07
2022-10-22T04:17:50.348Z,10.13
2022-10-22T04:22:51.984Z,10.50
2022-10-22T04:27:53.555Z,10.15
2022-10-22T04:32:55.152Z,10.25
2022-10-22T04:37:56.876Z,10.52
2022-10-22T04:42:58.907Z,10.40
2022-10-22T04:48:00.486Z,10.50
2022-10-22T04:53:02.028Z,9.70
2022-10-22T04:58:03.749Z,9.85
2022-10-22T05:03:05.837Z,11.20
2022-10-22T05:08:07.380Z,10.93
2022-10-22T05:13:08.927Z,10.77
2022-10-22T05:18:10.487Z,10.75
2022-10-22T05:23:12.045Z,10.73
2022-10-22T05:28:13.603Z,10.85
2022-10-22T05:33:15.174Z,10.25
2022-10-22T05:38:17.932Z,10.23
2022-10-22T05:43:19.536Z,11.00
2022-10-22T05:48:21.166Z,11.25
2022-10-22T05:53:22.930Z,10.63
2022-10-22T05:58:24.464Z,10.15
2022-10-22T06:03:26.037Z,10.90
2022-10-22T06:08:28.997Z,10.45
2022-10-22T06:13:32.820Z,9.60
2022-10-22T06:18:34.653Z,10.18
2022-10-22T06:23:37.534Z,10.43
2022-10-22T06:28:39.308Z,11.93
2022-10-22T06:33:43.848Z,11.48
2022-10-22T06:38:45.858Z,11.05
2022-10-22T06:43:47.541Z,12.07
2022-10-22T06:48:59.295Z,10.80
2022-10-22T06:54:00.917Z,11.85
2022-10-22T06:59:03.178Z,10.90
2022-10-22T07:04:05.720Z,11.60
2022-10-22T07:09:07.547Z,11.02
2022-10-22T07:14:10.164Z,11.05
2022-10-22T07:19:12.011Z,11.65
2022-10-22T07:24:13.615Z,10.77
2022-10-22T07:29:18.028Z,13.85
2022-10-22T07:39:22.107Z,13.18
2022-10-22T07:44:23.655Z,15.10
2022-10-22T07:49:25.284Z,14.70
2022-10-22T07:54:26.918Z,13.38
2022-10-22T07:59:28.533Z,12.85
2022-10-22T08:04:30.084Z,13.32
2022-10-22T08:09:32.014Z,11.65
2022-10-22T08:14:33.571Z,12.38
2022-10-22T08:19:35.510Z,13.10
2022-10-22T08:24:37.099Z,13.80
2022-10-22T08:29:38.893Z,14.15
2022-10-22T08:34:40.519Z,14.98
2022-10-22T08:39:42.067Z,17.80
2022-10-22T08:44:52.483Z,17.45
2022-10-22T08:49:55.552Z,15.90
2022-10-22T08:54:59.840Z,14.10
2022-10-22T09:00:15.341Z,14.85
2022-10-22T09:05:58.208Z,13.43
2022-10-22T09:11:32.616Z,14.40
2022-10-22T09:16:39.234Z,12.98
2022-10-22T09:22:05.382Z,12.25
2022-10-22T09:27:25.680Z,12.75
2022-10-22T09:32:28.560Z,11.88
2022-10-22T09:37:30.256Z,12.50
2022-10-22T09:42:33.649Z,12.70
2022-10-22T09:53:25.014Z,13.20
2022-10-22T09:58:27.494Z,12.40
2022-10-22T10:03:35.425Z,12.90
2022-10-22T10:08:37.117Z,12.77
2022-10-22T10:13:41.537Z,13.98
2022-10-22T10:19:04.849Z,13.98
2022-10-22T10:24:14.481Z,14.05
2022-10-22T10:29:45.984Z,14.15
2022-10-22T10:35:19.472Z,13.10
2022-10-22T10:40:42.654Z,13.77
2022-10-22T10:46:05.442Z,11.23
2022-10-22T10:51:37.995Z,12.43
2022-10-22T10:56:48.195Z,13.52
2022-10-22T11:02:40.566Z,13.77
2022-10-22T11:07:52.115Z,13.70
2022-10-22T11:13:03.349Z,13.68
2022-10-22T11:18:35.584Z,13.80
2022-10-22T11:23:44.228Z,13.55
2022-10-22T11:28:52.659Z,13.32
2022-10-22T11:34:33.394Z,14.45
2022-10-22T11:39:35.622Z,13.68
2022-10-22T11:45:02.251Z,13.18
2022-10-22T11:50:03.869Z,11.65
2022-10-22T11:55:31.729Z,11.75
2022-10-22T12:00:40.469Z,11.23
2022-10-22T12:05:42.083Z,10.57
2022-10-22T12:10:57.579Z,11.20
2022-10-22T12:16:03.755Z,10.88
2022-10-22T12:21:05.546Z,10.48
2022-10-22T12:26:23.266Z,9.90
2022-10-22T12:31:25.187Z,7.93
2022-10-22T12:36:28.716Z,6.85
2022-10-22T12:41:35.479Z,6.60
2022-10-22T12:46:37.059Z,6.28
2022-10-22T12:51:38.690Z,6.22
2022-10-22T12:56:40.519Z,6.55
2022-10-22T13:01:43.622Z,7.15
2022-10-22T13:07:04.957Z,6.82
2022-10-22T13:12:08.583Z,6.78
2022-10-22T13:17:23.896Z,7.45
2022-10-22T13:22:31.736Z,8.30
2022-10-22T13:27:33.398Z,8.10
2022-10-22T13:32:35.094Z,8.57
2022-10-22T13:37:38.723Z,8.30
2022-10-22T13:42:40.735Z,8.02
2022-10-22T13:47:46.433Z,8.48
2022-10-22T13:52:54.441Z,7.88
2022-10-22T13:58:14.148Z,7.65
2022-10-22T14:03:19.398Z,8.40
2022-10-22T14:08:23.132Z,8.27
2022-10-22T14:13:24.774Z,8.32
2022-10-22T14:18:31.484Z,9.07
2022-10-22T14:23:35.144Z,9.43
2022-10-22T14:28:41.364Z,8.50
2022-10-22T14:33:53.768Z,8.88
2022-10-22T14:38:55.377Z,10.10
2022-10-22T14:43:57.104Z,10.02
2022-10-22T14:48:58.664Z,10.13
2022-10-22T14:54:00.270Z,10.13
2022-10-22T14:59:01.830Z,9.93
2022-10-22T15:04:03.504Z,9.88
2022-10-22T15:09:05.172Z,9.35
2022-10-22T15:14:06.868Z,9.60
2022-10-22T15:19:08.485Z,9.05
2022-10-22T15:24:10.096Z,9.10
2022-10-22T15:29:12.181Z,9.65
2022-10-22T15:34:18.011Z,8.98
2022-10-22T15:39:19.584Z,8.88
2022-10-22T15:44:24.584Z,9.07
2022-10-22T15:49:28.140Z,8.55
2022-10-22T15:54:31.562Z,9.05
2022-10-22T15:59:33.190Z,8.68
2022-10-22T16:04:34.793Z,9.57
2022-10-22T16:09:36.364Z,11.57
2022-10-22T16:14:37.986Z,11.63
2022-10-22T16:19:39.542Z,10.93
2022-10-22T16:24:41.222Z,14.18
2022-10-22T16:29:42.778Z,14.15
2022-10-22T16:34:44.341Z,13.07
2022-10-22T16:39:46.231Z,14.93
2022-10-22T16:44:47.965Z,13.05
2022-10-22T16:49:49.544Z,16.55
2022-10-22T16:54:51.091Z,15.57
2022-10-22T16:59:52.836Z,15.60
2022-10-22T17:04:54.384Z,15.00
2022-10-22T17:09:55.936Z,12.68
2022-10-22T17:14:57.489Z,12.05
2022-10-22T17:19:59.273Z,12.35
2022-10-22T17:25:11.755Z,12.25
2022-10-22T17:30:20.943Z,12.52
2022-10-22T17:35:25.087Z,11.98
2022-10-22T17:40:27.100Z,11.70
2022-10-22T17:45:28.725Z,11.77
2022-10-22T17:50:30.434Z,10.73
2022-10-22T17:55:34.733Z,10.60
2022-10-22T18:00:36.376Z,10.60
2022-10-22T18:05:37.921Z,11.70
2022-10-22T18:10:40.438Z,10.65
2022-10-22T18:15:41.990Z,9.55
2022-10-22T18:20:48.981Z,10.73
2022-10-22T18:25:50.928Z,11.10
2022-10-22T18:30:52.574Z,10.88
2022-10-22T18:35:54.214Z,9.05
2022-10-22T18:40:55.767Z,8.93
2022-10-22T18:45:57.736Z,9.13
2022-10-22T18:51:04.463Z,8.93
2022-10-22T18:56:07.832Z,9.25
2022-10-22T19:01:21.195Z,9.80
2022-10-22T19:06:34.333Z,9.55
2022-10-22T19:11:38.422Z,11.98
2022-10-22T19:16:40.032Z,10.65
2022-10-22T19:21:41.690Z,10.05
2022-10-22T19:26:43.699Z,12.25
2022-10-22T19:31:45.959Z,13.73
2022-10-22T19:36:47.552Z,12.65
2022-10-22T19:41:49.274Z,12.18
2022-10-22T19:46:50.903Z,11.43
2022-10-22T19:51:52.682Z,10.65
2022-10-22T19:56:54.414Z,10.70
2022-10-22T20:01:56.095Z,10.35
2022-10-22T20:06:57.893Z,10.65
2022-10-22T20:11:59.524Z,10.05
2022-10-22T20:17:01.171Z,10.50
2022-10-22T20:22:02.925Z,12.10
2022-10-22T20:27:04.527Z,11.40
2022-10-22T20:32:08.097Z,11.18
2022-10-22T20:37:10.561Z,10.57
2022-10-22T20:42:12.107Z,10.30
2022-10-22T20:47:13.744Z,10.13
2022-10-22T20:52:15.317Z,9.93
2022-10-22T20:57:16.932Z,9.70
2022-10-22T21:02:18.583Z,10.75
2022-10-22T21:07:20.134Z,9.93
2022-10-22T21:12:21.696Z,9.90
2022-10-22T21:17:23.332Z,9.35
2022-10-22T21:22:24.860Z,9.43
2022-10-22T21:27:26.511Z,9.68
2022-10-22T21:32:28.426Z,10.23
2022-10-22T21:37:30.235Z,9.68
2022-10-22T21:42:31.816Z,9.48
2022-10-22T21:47:33.412Z,9.52
2022-10-22T21:52:34.999Z,8.60
2022-10-22T21:57:36.820Z,10.00
2022-10-22T22:02:38.462Z,9.38
2022-10-22T22:07:40.239Z,9.63
2022-10-22T22:12:42.005Z,10.10
2022-10-22T22:17:43.733Z,9.52
2022-10-22T22:22:45.297Z,9.43
2022-10-22T22:27:46.863Z,10.00
2022-10-22T22:32:48.430Z,9.65
2022-10-22T22:37:49.971Z,9.32
2022-10-22T22:42:51.521Z,8.57
2022-10-22T22:47:53.055Z,9.55
2022-10-22T22:52:54.593Z,9.63
2022-10-22T22:57:56.621Z,10.07
2022-10-22T23:02:58.217Z,11.27
2022-10-22T23:08:00.408Z,11.98
2022-10-22T23:13:02.008Z,11.15
2022-10-22T23:18:03.683Z,11.57
2022-10-22T23:23:08.112Z,10.50
2022-10-22T23:28:09.676Z,10.10
2022-10-22T23:33:11.742Z,9.65
2022-10-22T23:38:13.404Z,9.20
2022-10-22T23:43:14.973Z,9.55
2022-10-22T23:48:16.574Z,9.10
2022-10-22T23:53:18.219Z,9.50
2022-10-22T23:58:19.833Z,9.38
